createdAt,value
2022-08-16T00:04:35.018Z,21.63
2022-08-16T00:09:41.795Z,21.62
2022-08-16T00:14:48.445Z,21.62
2022-08-16T00:19:56.125Z,21.53
2022-08-16T00:25:02.197Z,21.42
2022-08-16T00:30:19.673Z,21.37
2022-08-16T00:35:37.394Z,21.27
2022-08-16T00:40:53.671Z,21.17
2022-08-16T00:46:22.470Z,21.07
2022-08-16T00:51:38.679Z,20.95
2022-08-16T00:56:58.539Z,20.94
2022-08-16T01:02:31.572Z,20.98
2022-08-16T01:07:51.375Z,20.95
2022-08-16T01:13:00.399Z,20.96
2022-08-16T01:18:40.638Z,20.94
2022-08-16T01:23:58.711Z,20.86
2022-08-16T01:29:13.789Z,20.77
2022-08-16T01:34:25.181Z,20.68
2022-08-16T01:39:35.388Z,20.72
2022-08-16T01:44:43.384Z,20.79
2022-08-16T01:50:43.274Z,20.79
2022-08-16T01:55:18.453Z,20.81
2022-08-16T02:00:29.152Z,20.81
2022-08-16T02:05:37.589Z,20.81
2022-08-16T02:10:48.455Z,20.81
2022-08-16T02:15:54.390Z,20.76
2022-08-16T02:21:01.872Z,20.70
2022-08-16T02:26:10.993Z,20.63
2022-08-16T02:32:03.244Z,20.57
2022-08-16T02:36:50.669Z,20.49
2022-08-16T02:41:57.781Z,20.45
2022-08-16T02:47:04.114Z,20.45
2022-08-16T02:52:10.965Z,20.45
2022-08-16T02:57:24.295Z,20.36
2022-08-16T03:02:32.185Z,20.21
2022-08-16T03:07:42.446Z,20.16
2022-08-16T03:12:57.498Z,20.14
2022-08-16T03:18:12.573Z,20.18
2022-08-16T03:23:35.763Z,20.23
2022-08-16T03:28:42.201Z,20.28
2022-08-16T03:33:48.313Z,20.33
2022-08-16T03:38:58.936Z,20.36
2022-08-16T03:44:07.326Z,20.31
2022-08-16T03:49:17.987Z,20.31
2022-08-16T03:54:28.540Z,20.38
2022-08-16T03:59:35.106Z,20.53
2022-08-16T04:04:47.000Z,20.60
2022-08-16T04:09:54.288Z,20.64
2022-08-16T04:15:02.571Z,20.67
2022-08-16T04:20:31.229Z,20.74
2022-08-16T04:25:40.650Z,20.82
2022-08-16T04:30:48.066Z,20.89
2022-08-16T04:35:58.515Z,20.89
2022-08-16T04:41:05.347Z,20.94
2022-08-16T04:47:01.160Z,21.04
2022-08-16T04:51:42.641Z,21.19
2022-08-16T04:56:48.818Z,21.32
2022-08-16T05:01:58.704Z,21.42
2022-08-16T05:07:06.467Z,21.48
2022-08-16T05:30:04.880Z,22.40
2022-08-16T05:35:28.438Z,22.55
2022-08-16T05:40:41.695Z,22.61
2022-08-16T05:46:03.949Z,22.70
2022-08-16T05:51:37.523Z,22.76
2022-08-16T05:56:49.981Z,22.82
2022-08-16T06:01:56.852Z,22.89
2022-08-16T06:07:13.520Z,22.98
2022-08-16T06:12:35.159Z,23.00
2022-08-16T06:17:45.460Z,23.19
2022-08-16T06:23:03.488Z,23.80
2022-08-16T06:28:40.525Z,24.73
2022-08-16T06:33:53.080Z,25.13
2022-08-16T06:38:59.750Z,25.47
2022-08-16T06:44:31.406Z,26.03
2022-08-16T06:49:54.141Z,26.40
2022-08-16T06:55:01.685Z,26.56
2022-08-16T07:00:24.410Z,26.97
2022-08-16T07:05:42.073Z,27.34
2022-08-16T07:10:56.027Z,27.82
2022-08-16T07:16:05.987Z,29.96
2022-08-16T07:21:15.185Z,31.32
2022-08-16T07:26:24.354Z,31.73
2022-08-16T07:31:37.939Z,33.48
2022-08-16T07:36:58.002Z,34.73
2022-08-16T07:42:07.446Z,36.22
2022-08-16T07:47:14.195Z,37.42
2022-08-16T07:52:20.796Z,38.20
2022-08-16T07:57:27.359Z,39.68
2022-08-16T08:02:33.553Z,41.16
2022-08-16T08:07:39.579Z,41.99
2022-08-16T08:12:54.971Z,42.68
2022-08-16T08:18:30.128Z,43.48
2022-08-16T08:23:28.534Z,44.40
2022-08-16T08:28:35.589Z,44.84
2022-08-16T08:33:47.303Z,44.94
2022-08-16T08:39:13.268Z,45.10
2022-08-16T08:44:28.949Z,45.17
2022-08-16T08:49:50.386Z,43.43
2022-08-16T08:55:10.605Z,41.35
2022-08-16T09:00:26.861Z,38.99
2022-08-16T09:05:47.515Z,36.78
2022-08-16T09:11:05.010Z,34.84
2022-08-16T09:17:03.513Z,33.62
2022-08-16T09:21:56.047Z,32.65
2022-08-16T09:27:09.208Z,31.81
2022-08-16T09:32:28.652Z,31.03
2022-08-16T09:37:37.104Z,30.47
2022-08-16T09:42:55.905Z,30.08
2022-08-16T09:48:02.116Z,29.92
2022-08-16T09:53:15.422Z,29.64
2022-08-16T09:58:41.804Z,29.60
2022-08-16T10:04:02.254Z,29.29
2022-08-16T10:09:11.525Z,29.19
2022-08-16T10:14:17.459Z,29.08
2022-08-16T10:19:25.633Z,28.81
2022-08-16T10:24:32.584Z,28.72
2022-08-16T10:30:01.301Z,28.65
2022-08-16T10:35:04.422Z,28.56
2022-08-16T10:40:29.012Z,28.47
2022-08-16T10:45:37.367Z,28.46
2022-08-16T10:50:52.573Z,28.31
2022-08-16T10:56:52.834Z,28.09
2022-08-16T11:02:56.936Z,27.94
2022-08-16T11:12:37.183Z,28.11
2022-08-16T11:17:46.908Z,28.22
2022-08-16T11:23:08.224Z,28.23
2022-08-16T11:29:12.219Z,28.05
2022-08-16T11:33:56.342Z,27.84
2022-08-16T11:39:02.262Z,27.56
2022-08-16T11:44:08.308Z,27.33
2022-08-16T11:49:19.208Z,27.07
2022-08-16T11:54:36.230Z,26.99
2022-08-16T11:59:42.375Z,26.92
2022-08-16T12:04:51.703Z,26.85
2022-08-16T12:09:58.676Z,26.65
2022-08-16T12:15:08.296Z,26.56
2022-08-16T12:20:18.753Z,26.71
2022-08-16T12:25:26.586Z,26.86
2022-08-16T12:30:38.880Z,26.98
2022-08-16T12:35:46.966Z,27.13
2022-08-16T12:40:57.114Z,27.35
2022-08-16T12:46:03.018Z,27.35
2022-08-16T12:51:19.637Z,27.57
2022-08-16T12:56:28.943Z,27.75
2022-08-16T13:01:35.533Z,27.88
2022-08-16T13:06:41.500Z,28.27
2022-08-16T13:11:59.895Z,28.73
2022-08-16T13:17:09.594Z,29.42
2022-08-16T13:22:19.691Z,29.85
2022-08-16T13:27:59.335Z,29.86
2022-08-16T13:32:53.243Z,29.59
2022-08-16T13:37:58.640Z,29.32
2022-08-16T13:48:26.455Z,28.94
2022-08-16T13:54:02.910Z,29.04
2022-08-16T13:59:21.117Z,29.26
2022-08-16T14:04:35.471Z,29.31
2022-08-16T14:09:43.138Z,29.38
2022-08-16T14:14:54.544Z,29.31
2022-08-16T14:20:01.951Z,29.25
2022-08-16T14:25:11.891Z,29.14
2022-08-16T14:30:25.687Z,29.07
2022-08-16T14:35:48.403Z,28.94
2022-08-16T14:40:55.936Z,29.00
2022-08-16T14:46:01.753Z,28.98
2022-08-16T14:51:07.394Z,29.07
2022-08-16T14:56:17.609Z,28.98
2022-08-16T15:01:59.567Z,28.90
2022-08-16T15:07:05.380Z,28.96
2022-08-16T15:12:26.933Z,29.02
2022-08-16T15:17:37.357Z,29.05
2022-08-16T15:22:45.331Z,29.11
2022-08-16T15:27:55.454Z,29.09
2022-08-16T15:33:05.369Z,28.98
2022-08-16T15:38:57.299Z,28.85
2022-08-16T15:43:39.079Z,28.85
2022-08-16T15:48:45.688Z,28.84
2022-08-16T15:54:16.560Z,28.77
2022-08-16T15:59:20.186Z,28.62
2022-08-16T16:04:28.475Z,28.41
2022-08-16T16:09:36.636Z,28.26
2022-08-16T16:14:42.840Z,28.16
2022-08-16T16:19:49.678Z,28.02
2022-08-16T16:24:59.124Z,27.95
2022-08-16T16:30:11.352Z,27.85
2022-08-16T16:35:36.492Z,27.75
2022-08-16T16:40:46.350Z,27.62
2022-08-16T16:45:59.392Z,27.49
2022-08-16T16:51:10.148Z,27.40
2022-08-16T16:56:20.289Z,27.27
2022-08-16T17:01:57.742Z,27.13
2022-08-16T17:07:03.826Z,27.02
2022-08-16T17:12:24.784Z,26.88
2022-08-16T17:17:59.027Z,26.69
2022-08-16T17:23:05.499Z,26.52
2022-08-16T17:29:00.034Z,26.34
2022-08-16T17:33:54.415Z,26.19
2022-08-16T17:39:01.790Z,25.96
2022-08-16T17:44:08.824Z,25.72
2022-08-16T17:49:14.218Z,25.54
2022-08-16T17:54:30.313Z,25.44
2022-08-16T17:59:40.994Z,25.29
2022-08-16T18:04:49.798Z,25.08
2022-08-16T18:09:55.498Z,24.91
2022-08-16T18:15:01.323Z,24.76
2022-08-16T18:20:29.125Z,24.64
2022-08-16T18:26:00.171Z,24.56
2022-08-16T18:31:06.513Z,24.54
2022-08-16T18:36:20.838Z,24.51
2022-08-16T18:41:27.595Z,24.45
2022-08-16T18:46:33.018Z,24.40
2022-08-16T18:51:42.313Z,24.35
2022-08-16T18:56:56.874Z,24.28
2022-08-16T19:02:05.651Z,24.23
2022-08-16T19:07:11.480Z,24.18
2022-08-16T19:12:16.802Z,24.14
2022-08-16T19:17:43.149Z,24.02
2022-08-16T19:23:05.284Z,23.83
2022-08-16T19:28:21.630Z,23.67
2022-08-16T19:33:38.689Z,23.57
2022-08-16T19:38:44.621Z,23.49
2022-08-16T19:43:50.069Z,23.38
2022-08-16T19:48:55.421Z,23.27
2022-08-16T19:54:01.038Z,23.16
2022-08-16T19:59:39.376Z,23.09
2022-08-16T20:04:32.715Z,22.98
2022-08-16T20:09:38.698Z,22.86
2022-08-16T20:14:45.775Z,22.79
2022-08-16T20:19:51.180Z,22.68
2022-08-16T20:24:57.432Z,22.50
2022-08-16T20:30:04.845Z,22.25
2022-08-16T20:35:13.054Z,22.05
2022-08-16T20:40:28.458Z,21.86
2022-08-16T20:45:43.599Z,21.67
2022-08-16T20:50:49.031Z,21.57
2022-08-16T20:55:54.566Z,21.53
2022-08-16T21:01:00.649Z,21.42
2022-08-16T21:06:06.524Z,21.33
2022-08-16T21:11:11.908Z,21.28
2022-08-16T21:16:18.478Z,21.29
2022-08-16T21:21:24.301Z,21.31
2022-08-16T21:26:37.805Z,21.39
2022-08-16T21:31:45.109Z,21.45
2022-08-16T21:36:50.967Z,21.44
2022-08-16T21:41:56.678Z,21.34
2022-08-16T21:47:01.998Z,21.20
2022-08-16T21:52:08.935Z,21.08
2022-08-16T21:57:14.369Z,20.98
2022-08-16T22:02:20.889Z,20.99
2022-08-16T22:07:26.250Z,21.05
2022-08-16T22:12:32.017Z,21.03
2022-08-16T22:17:37.944Z,20.94
2022-08-16T22:22:43.457Z,20.88
2022-08-16T22:27:49.738Z,20.77
2022-08-16T22:32:55.244Z,20.66
2022-08-16T22:38:53.943Z,20.59
2022-08-16T22:43:30.806Z,20.55
2022-08-16T22:48:39.251Z,20.55
2022-08-16T22:53:46.697Z,20.56
2022-08-16T22:58:52.409Z,20.46
2022-08-16T23:03:57.901Z,20.38
2022-08-16T23:09:03.701Z,20.27
2022-08-16T23:14:09.034Z,20.17
2022-08-16T23:19:15.983Z,20.13
2022-08-16T23:24:21.562Z,20.14
2022-08-16T23:29:27.412Z,20.06
2022-08-16T23:34:34.643Z,19.97
2022-08-16T23:39:40.923Z,19.91
2022-08-16T23:44:58.137Z,19.84
2022-08-16T23:50:06.694Z,19.80
2022-08-16T23:55:12.471Z,19.80
